Time;durP1;ratioP1;P1;durP2;ratioP2;P2;SDS_P1;SDS_P2;PMS_P1;PMS_P2;Temp;Humidity;BMP_temperature;BMP_pressure;BME280_temperature;BME280_humidity;BME280_pressure;Samples;Min_cycle;Max_cycle;Signal;HPM_P1;HPM_P2
2021/03/10 00:01:47;;;;;;;8.98;5.68;;;3.40;50.20;;;;;;5071709;28;20476;-67
2021/03/10 00:04:12;;;;;;;9.18;5.47;;;3.30;50.30;;;;;;5054001;28;20041;-66
2021/03/10 00:06:38;;;;;;;10.00;5.30;;;3.40;50.40;;;;;;5052001;28;20440;-66
2021/03/10 00:09:04;;;;;;;12.93;6.55;;;3.30;50.60;;;;;;5063420;28;20107;-66
2021/03/10 00:11:29;;;;;;;13.88;6.18;;;3.30;50.70;;;;;;5070049;28;20040;-67
2021/03/10 00:13:55;;;;;;;10.38;5.68;;;3.30;50.60;;;;;;5060734;28;20024;-67
2021/03/10 00:16:20;;;;;;;12.05;5.07;;;3.30;50.60;;;;;;5052775;28;20062;-68
2021/03/10 00:18:46;;;;;;;10.25;5.35;;;3.30;50.60;;;;;;5050565;28;20028;-68
2021/03/10 00:21:11;;;;;;;11.32;5.82;;;3.30;50.80;;;;;;5051609;28;20029;-67
2021/03/10 00:23:36;;;;;;;10.80;5.97;;;3.20;50.80;;;;;;5059413;28;20032;-67
2021/03/10 00:26:02;;;;;;;13.70;6.53;;;3.20;50.90;;;;;;5071463;28;20112;-67
2021/03/10 00:28:28;;;;;;;11.73;6.20;;;3.10;50.90;;;;;;5059743;28;20028;-67
2021/03/10 00:30:54;;;;;;;12.63;6.47;;;3.10;51.10;;;;;;5050842;28;20109;-67
2021/03/10 00:33:19;;;;;;;14.07;7.80;;;3.10;51.00;;;;;;5052865;28;20146;-67
2021/03/10 00:35:45;;;;;;;13.30;7.22;;;3.00;51.00;;;;;;5068966;28;20031;-67
2021/03/10 00:38:10;;;;;;;13.45;7.28;;;3.00;51.10;;;;;;5067491;28;20040;-67
2021/03/10 00:40:36;;;;;;;13.43;6.60;;;3.00;51.10;;;;;;5068769;28;20489;-67
2021/03/10 00:43:01;;;;;;;13.63;7.10;;;2.90;51.10;;;;;;5054216;28;20035;-67
2021/03/10 00:45:27;;;;;;;12.82;6.60;;;2.90;51.20;;;;;;5070051;28;20016;-68
2021/03/10 00:47:59;;;;;;;13.77;6.78;;;2.90;51.20;;;;;;5064507;28;20057;-67
2021/03/10 00:50:26;;;;;;;13.00;6.97;;;2.90;51.40;;;;;;5051057;28;20025;-67
2021/03/10 00:52:52;;;;;;;15.20;7.68;;;2.90;51.20;;;;;;5049836;28;20067;-67
2021/03/10 00:55:18;;;;;;;15.60;7.18;;;2.90;51.40;;;;;;5053572;28;20549;-67
2021/03/10 00:57:44;;;;;;;16.48;7.43;;;2.80;51.20;;;;;;5056420;28;20052;-67
2021/03/10 01:00:11;;;;;;;17.30;7.47;;;2.80;51.30;;;;;;5075225;28;20035;-67
2021/03/10 01:02:36;;;;;;;15.10;7.30;;;2.70;51.20;;;;;;5068409;28;20545;-67
2021/03/10 01:05:03;;;;;;;15.07;7.25;;;2.70;51.30;;;;;;5055141;28;20029;-67
2021/03/10 01:07:29;;;;;;;17.58;6.93;;;2.70;51.30;;;;;;5054141;28;20029;-67
2021/03/10 01:09:54;;;;;;;14.45;6.32;;;2.70;51.50;;;;;;5055445;28;20028;-67
2021/03/10 01:12:20;;;;;;;14.68;6.45;;;2.70;51.50;;;;;;5053985;28;20179;-67
2021/03/10 01:14:45;;;;;;;13.00;7.10;;;2.70;51.60;;;;;;5054196;28;20025;-67
2021/03/10 01:17:11;;;;;;;13.52;6.43;;;2.60;51.60;;;;;;5054870;28;20087;-66
2021/03/10 01:19:36;;;;;;;14.88;6.82;;;2.70;51.70;;;;;;5054490;28;20063;-67
2021/03/10 01:22:02;;;;;;;13.95;6.80;;;2.60;51.70;;;;;;5054739;28;20057;-67
2021/03/10 01:24:28;;;;;;;14.32;7.00;;;2.60;51.60;;;;;;5069690;28;20462;-67
2021/03/10 01:26:53;;;;;;;15.93;6.63;;;2.60;51.70;;;;;;5074837;28;20066;-67
2021/03/10 01:29:20;;;;;;;12.90;6.78;;;2.60;51.80;;;;;;5055253;28;20025;-67
2021/03/10 01:31:46;;;;;;;12.82;6.82;;;2.60;51.90;;;;;;5054902;28;20500;-67
2021/03/10 01:34:11;;;;;;;14.10;5.70;;;2.60;51.90;;;;;;5053132;28;20033;-67
2021/03/10 01:36:37;;;;;;;16.23;7.95;;;2.50;52.00;;;;;;5057983;28;20465;-67
2021/03/10 01:39:03;;;;;;;13.77;6.57;;;2.50;52.00;;;;;;5058460;28;20029;-66
2021/03/10 01:41:28;;;;;;;14.10;7.75;;;2.50;52.10;;;;;;5053099;28;20112;-66
2021/03/10 01:43:54;;;;;;;12.20;8.38;;;2.50;52.40;;;;;;5064349;28;20109;-67
2021/03/10 01:46:20;;;;;;;14.85;7.40;;;2.50;52.30;;;;;;5074742;28;20023;-66
2021/03/10 01:48:45;;;;;;;14.23;7.68;;;2.40;52.20;;;;;;5060365;28;20373;-66
2021/03/10 01:51:11;;;;;;;16.73;7.47;;;2.50;52.30;;;;;;5039107;28;20037;-66
2021/03/10 01:53:37;;;;;;;15.35;7.07;;;2.50;52.40;;;;;;5034860;28;20024;-66
2021/03/10 01:56:03;;;;;;;12.95;7.20;;;2.50;52.50;;;;;;5034303;28;20029;-67
2021/03/10 01:58:28;;;;;;;13.60;6.93;;;2.40;52.40;;;;;;5043395;28;20056;-67
2021/03/10 02:00:54;;;;;;;11.90;6.88;;;2.40;52.50;;;;;;5052502;28;20098;-67
2021/03/10 02:03:20;;;;;;;14.82;7.15;;;2.40;52.50;;;;;;5052250;28;20540;-67
2021/03/10 02:05:45;;;;;;;11.85;6.38;;;2.40;52.50;;;;;;5057084;28;20033;-67
2021/03/10 02:08:25;;;;;;;14.02;6.25;;;2.40;52.50;;;;;;5070410;28;20378;-67
2021/03/10 02:11:04;;;;;;;11.48;6.85;;;2.40;52.60;;;;;;5073410;28;20029;-68
2021/03/10 02:14:12;;;;;;;13.00;6.80;;;2.40;52.50;;;;;;5063986;28;20037;-67
2021/03/10 02:16:44;;;;;;;13.15;6.53;;;2.40;52.60;;;;;;5034007;28;20037;-67
2021/03/10 02:19:12;;;;;;;16.27;7.20;;;2.40;52.60;;;;;;5063323;28;20106;-67
2021/03/10 02:21:50;;;;;;;11.40;6.60;;;2.40;52.50;;;;;;5073895;28;20031;-67
2021/03/10 02:24:44;;;;;;;13.65;7.38;;;2.40;52.50;;;;;;5055734;28;20271;-66
2021/03/10 02:27:40;;;;;;;12.48;6.32;;;2.40;52.50;;;;;;5053657;28;20021;-67
2021/03/10 02:30:10;;;;;;;15.40;6.72;;;2.30;52.50;;;;;;5053757;28;20037;-66
2021/03/10 02:32:39;;;;;;;20.55;8.02;;;2.30;52.40;;;;;;5059882;28;20055;-65
2021/03/10 02:35:07;;;;;;;13.15;7.47;;;2.30;52.50;;;;;;5065052;28;20024;-66
2021/03/10 02:37:35;;;;;;;13.45;6.95;;;2.30;53.00;;;;;;5069464;28;20401;-66
2021/03/10 02:40:03;;;;;;;12.38;6.80;;;2.30;52.60;;;;;;5042454;28;20035;-66
2021/03/10 02:42:29;;;;;;;17.27;7.38;;;2.30;52.70;;;;;;5047418;28;20058;-67
2021/03/10 02:44:56;;;;;;;12.32;6.20;;;2.30;52.70;;;;;;5033685;28;20355;-67
2021/03/10 02:47:24;;;;;;;12.98;7.30;;;2.30;52.80;;;;;;5052394;28;20035;-66
2021/03/10 02:49:51;;;;;;;13.98;6.75;;;2.30;52.90;;;;;;5053389;28;20021;-67
2021/03/10 02:52:17;;;;;;;14.27;6.65;;;2.30;52.90;;;;;;5051955;28;20033;-67
2021/03/10 02:54:43;;;;;;;12.93;6.30;;;2.30;53.00;;;;;;5052986;28;20021;-67
2021/03/10 02:57:09;;;;;;;14.05;6.75;;;2.30;53.20;;;;;;5054313;28;20044;-67
2021/03/10 02:59:35;;;;;;;13.82;7.32;;;2.30;53.30;;;;;;5073585;28;20376;-74
2021/03/10 03:02:01;;;;;;;15.88;6.82;;;2.30;53.30;;;;;;5067070;28;20028;-74
2021/03/10 03:04:26;;;;;;;15.38;6.93;;;2.30;53.30;;;;;;5044100;28;20025;-74
2021/03/10 03:06:52;;;;;;;11.32;6.63;;;2.40;53.40;;;;;;5053790;28;20150;-75
2021/03/10 03:09:17;;;;;;;12.73;6.78;;;2.40;53.40;;;;;;5072863;28;20130;-67
2021/03/10 03:11:43;;;;;;;13.13;7.05;;;2.40;53.40;;;;;;5069575;28;20041;-66
2021/03/10 03:14:08;;;;;;;13.73;7.35;;;2.40;53.40;;;;;;5044045;28;20028;-66
2021/03/10 03:16:34;;;;;;;16.08;7.40;;;2.30;53.40;;;;;;5040625;28;20040;-66
2021/03/10 03:19:01;;;;;;;14.48;6.80;;;2.30;53.50;;;;;;5072186;28;20021;-67
2021/03/10 03:21:27;;;;;;;16.05;8.02;;;2.30;53.60;;;;;;5087024;28;20028;-66
2021/03/10 03:23:53;;;;;;;11.55;7.00;;;2.30;53.70;;;;;;5051882;28;20036;-66
2021/03/10 03:26:19;;;;;;;16.25;8.05;;;2.30;53.80;;;;;;5052984;28;20029;-67
2021/03/10 03:28:46;;;;;;;18.20;7.95;;;2.30;53.90;;;;;;5068809;28;20036;-67
2021/03/10 03:31:14;;;;;;;14.60;7.70;;;2.30;54.00;;;;;;5053472;28;20029;-67
2021/03/10 03:33:41;;;;;;;18.60;8.32;;;2.30;54.10;;;;;;5051688;28;20029;-67
2021/03/10 03:36:08;;;;;;;13.95;8.07;;;2.20;54.20;;;;;;5052911;28;20021;-67
2021/03/10 03:38:34;;;;;;;15.13;8.13;;;2.20;54.20;;;;;;5067085;28;20071;-67
2021/03/10 03:41:00;;;;;;;13.18;7.20;;;2.20;54.20;;;;;;5072574;28;20052;-66
2021/03/10 03:43:26;;;;;;;15.25;8.25;;;2.20;54.40;;;;;;5054583;28;20029;-66
2021/03/10 03:45:52;;;;;;;16.42;7.78;;;2.20;54.40;;;;;;5055600;28;20361;-66
2021/03/10 03:48:19;;;;;;;15.23;8.00;;;2.20;54.50;;;;;;5068701;28;20029;-66
2021/03/10 03:50:44;;;;;;;14.88;8.10;;;2.20;54.50;;;;;;5072019;28;20076;-66
2021/03/10 03:53:12;;;;;;;15.05;7.38;;;2.20;54.60;;;;;;5056395;28;20032;-66
2021/03/10 03:55:37;;;;;;;16.95;8.80;;;2.20;54.60;;;;;;5051707;28;20120;-66
2021/03/10 03:58:03;;;;;;;15.65;7.55;;;2.20;54.60;;;;;;5060544;28;20580;-66
2021/03/10 04:00:29;;;;;;;16.00;7.60;;;2.10;54.60;;;;;;5070671;28;20477;-66
2021/03/10 04:02:54;;;;;;;17.75;9.18;;;2.10;54.60;;;;;;5064377;28;20024;-66
2021/03/10 04:05:21;;;;;;;13.98;8.35;;;2.10;54.70;;;;;;5032194;28;20478;-66
2021/03/10 04:07:51;;;;;;;17.10;8.75;;;2.00;54.60;;;;;;5042671;28;20029;-66
2021/03/10 04:10:18;;;;;;;16.20;8.93;;;2.00;54.80;;;;;;5052218;28;20036;-66
2021/03/10 04:12:44;;;;;;;18.08;8.13;;;2.00;54.80;;;;;;5059180;28;20467;-67
2021/03/10 04:15:12;;;;;;;20.23;9.07;;;1.90;54.80;;;;;;5054474;28;20021;-66
2021/03/10 04:17:37;;;;;;;17.30;8.05;;;2.00;55.00;;;;;;5058989;28;20515;-66
2021/03/10 04:20:07;;;;;;;18.02;8.75;;;1.90;55.20;;;;;;5071384;28;20024;-66
2021/03/10 04:22:32;;;;;;;19.90;8.10;;;1.90;55.30;;;;;;5060740;28;20025;-66
2021/03/10 04:24:58;;;;;;;20.00;8.50;;;1.80;55.20;;;;;;5051664;28;20021;-66
2021/03/10 04:27:23;;;;;;;15.27;8.63;;;1.80;55.30;;;;;;5056653;28;20024;-66
2021/03/10 04:29:49;;;;;;;16.58;9.00;;;1.80;55.30;;;;;;5071624;28;20036;-66
2021/03/10 04:32:14;;;;;;;19.70;8.73;;;1.80;55.90;;;;;;5063565;28;20111;-66
2021/03/10 04:34:40;;;;;;;18.98;8.43;;;1.80;55.50;;;;;;5050871;28;20017;-66
2021/03/10 04:37:05;;;;;;;13.80;8.20;;;1.80;55.50;;;;;;5056008;28;20229;-67
2021/03/10 04:39:31;;;;;;;17.63;8.50;;;1.80;55.60;;;;;;5068402;28;20021;-66
2021/03/10 04:41:56;;;;;;;17.20;8.73;;;1.80;55.60;;;;;;5050373;28;20017;-66
2021/03/10 04:44:22;;;;;;;16.95;8.82;;;1.80;55.70;;;;;;5051418;28;20099;-66
2021/03/10 04:46:47;;;;;;;26.02;9.68;;;1.80;55.90;;;;;;5051432;28;20061;-66
2021/03/10 04:49:13;;;;;;;19.77;9.15;;;1.70;55.80;;;;;;5070997;28;20377;-66
2021/03/10 04:51:38;;;;;;;17.40;8.57;;;1.70;55.90;;;;;;5068877;28;20111;-66
2021/03/10 04:54:04;;;;;;;20.30;9.07;;;1.70;56.00;;;;;;5035640;28;20579;-66
2021/03/10 04:56:29;;;;;;;23.33;9.88;;;1.70;55.90;;;;;;5031419;28;20056;-67
2021/03/10 04:58:54;;;;;;;18.20;9.43;;;1.70;56.00;;;;;;5050937;28;20405;-66
2021/03/10 05:01:20;;;;;;;22.10;9.13;;;1.70;56.20;;;;;;5051200;28;20573;-66
2021/03/10 05:03:45;;;;;;;18.92;8.82;;;1.70;56.30;;;;;;5050324;28;20120;-66
2021/03/10 05:06:11;;;;;;;19.38;9.23;;;1.70;56.40;;;;;;5051232;28;20450;-66
2021/03/10 05:08:37;;;;;;;18.02;8.80;;;1.70;56.50;;;;;;5046412;28;20031;-66
2021/03/10 05:11:03;;;;;;;18.67;9.13;;;1.70;56.50;;;;;;5051087;28;20052;-66
2021/03/10 05:13:28;;;;;;;20.45;9.07;;;1.70;56.50;;;;;;5049864;28;20053;-66
2021/03/10 05:15:54;;;;;;;22.73;9.85;;;1.70;56.60;;;;;;5050917;28;20458;-67
2021/03/10 05:18:19;;;;;;;17.73;8.63;;;1.70;56.60;;;;;;5063301;28;20102;-67
2021/03/10 05:20:45;;;;;;;19.23;8.65;;;1.70;56.70;;;;;;5069354;28;20021;-67
2021/03/10 05:23:10;;;;;;;16.98;8.30;;;1.70;56.90;;;;;;5054811;28;20037;-65
2021/03/10 05:25:36;;;;;;;18.63;9.30;;;1.70;57.00;;;;;;5051017;28;20709;-66
2021/03/10 05:28:01;;;;;;;20.70;8.55;;;1.70;56.90;;;;;;5060861;28;20024;-66
2021/03/10 05:30:27;;;;;;;19.98;8.80;;;1.70;57.00;;;;;;5070798;28;20334;-67
2021/03/10 05:32:52;;;;;;;19.27;8.57;;;1.60;57.40;;;;;;5056951;28;20098;-67
2021/03/10 05:35:18;;;;;;;17.77;8.73;;;1.70;57.40;;;;;;5050144;28;20051;-66
2021/03/10 05:37:43;;;;;;;19.88;9.48;;;1.60;57.20;;;;;;5049967;28;20036;-67
2021/03/10 05:40:09;;;;;;;22.75;9.63;;;1.60;57.20;;;;;;5050099;28;20063;-66
2021/03/10 05:42:39;;;;;;;18.80;8.60;;;1.60;57.10;;;;;;5048917;28;20486;-66
2021/03/10 05:45:05;;;;;;;23.65;8.88;;;1.60;57.10;;;;;;5034171;28;20028;-67
2021/03/10 05:47:31;;;;;;;22.15;9.93;;;1.60;57.10;;;;;;5050608;28;20028;-67
2021/03/10 05:49:56;;;;;;;23.02;9.20;;;1.60;57.00;;;;;;5074220;28;20044;-67
2021/03/10 05:52:22;;;;;;;22.27;10.00;;;1.60;56.80;;;;;;5064996;28;20129;-67
2021/03/10 05:54:50;;;;;;;21.42;9.02;;;1.60;56.80;;;;;;5054346;28;20021;-68
2021/03/10 05:57:17;;;;;;;21.08;10.10;;;1.60;56.90;;;;;;5057936;28;20044;-67
2021/03/10 05:59:42;;;;;;;19.98;9.90;;;1.60;56.90;;;;;;5074134;28;20035;-67
2021/03/10 06:02:08;;;;;;;20.23;9.55;;;1.60;56.90;;;;;;5065587;28;20021;-67
2021/03/10 06:04:41;;;;;;;23.85;10.52;;;1.60;57.00;;;;;;5072661;28;20487;-67
2021/03/10 06:07:18;;;;;;;22.98;10.40;;;1.60;57.10;;;;;;5056667;28;20101;-67
2021/03/10 06:09:54;;;;;;;22.27;10.68;;;1.60;57.10;;;;;;5053944;28;20464;-67
2021/03/10 06:12:20;;;;;;;20.90;10.57;;;1.60;57.10;;;;;;5058267;28;20401;-67
2021/03/10 06:14:45;;;;;;;27.05;10.73;;;1.60;57.10;;;;;;5045710;28;20014;-70
2021/03/10 06:17:11;;;;;;;18.95;10.07;;;1.60;57.20;;;;;;5039621;28;20118;-67
2021/03/10 06:19:48;;;;;;;23.20;10.48;;;1.60;57.20;;;;;;5053975;28;20469;-66
2021/03/10 06:22:16;;;;;;;22.30;10.55;;;1.60;57.20;;;;;;5051611;28;20481;-67
2021/03/10 06:24:43;;;;;;;25.98;12.30;;;1.70;57.30;;;;;;5053719;28;20419;-67
2021/03/10 06:27:09;;;;;;;22.15;11.05;;;1.70;57.30;;;;;;5055933;28;20021;-68
2021/03/10 06:29:35;;;;;;;27.50;11.63;;;1.70;57.20;;;;;;5042266;28;20034;-67
2021/03/10 06:32:05;;;;;;;23.17;11.13;;;1.70;57.30;;;;;;5055846;28;20130;-67
2021/03/10 06:34:42;;;;;;;19.13;10.15;;;1.70;57.30;;;;;;5067575;28;20081;-68
2021/03/10 06:37:10;;;;;;;21.15;10.82;;;1.70;57.30;;;;;;5061059;28;20548;-67
2021/03/10 06:39:35;;;;;;;24.02;10.98;;;1.80;57.30;;;;;;5073469;28;20358;-67
2021/03/10 06:42:11;;;;;;;31.92;11.60;;;1.90;57.40;;;;;;5063065;28;20055;-67
2021/03/10 06:44:48;;;;;;;24.10;11.27;;;1.80;57.40;;;;;;5033681;28;20087;-68
2021/03/10 06:47:14;;;;;;;28.42;11.73;;;1.80;57.40;;;;;;5049618;28;20516;-68
2021/03/10 06:49:49;;;;;;;23.55;11.02;;;1.90;57.40;;;;;;5073264;28;20060;-67
2021/03/10 06:52:15;;;;;;;21.05;9.95;;;2.00;57.50;;;;;;5064360;28;20516;-67
2021/03/10 06:55:04;;;;;;;24.00;10.02;;;2.00;57.40;;;;;;5053336;28;20013;-67
2021/03/10 06:57:30;;;;;;;23.10;10.48;;;2.10;57.40;;;;;;5059052;28;20429;-67
2021/03/10 06:59:58;;;;;;;21.10;10.07;;;2.10;57.20;;;;;;5073276;28;20043;-67
2021/03/10 07:02:26;;;;;;;20.25;10.18;;;2.20;57.10;;;;;;5069872;28;20074;-67
2021/03/10 07:04:57;;;;;;;24.75;10.20;;;2.20;56.90;;;;;;5062949;28;20041;-67
2021/03/10 07:07:24;;;;;;;20.08;10.38;;;2.30;56.90;;;;;;5057287;28;20028;-65
2021/03/10 07:09:50;;;;;;;23.35;9.73;;;2.30;56.70;;;;;;5065956;28;20028;-68
2021/03/10 07:12:18;;;;;;;22.80;10.23;;;2.30;56.50;;;;;;5051963;28;20033;-68
2021/03/10 07:14:44;;;;;;;22.65;10.65;;;2.40;56.50;;;;;;5046977;28;20036;-69
2021/03/10 07:17:12;;;;;;;24.67;10.65;;;2.40;56.10;;;;;;5033736;28;20053;-68
2021/03/10 07:19:39;;;;;;;22.83;11.10;;;2.40;56.10;;;;;;5036874;28;20021;-68
2021/03/10 07:22:13;;;;;;;22.90;9.63;;;2.40;56.10;;;;;;5049478;28;20048;-69
2021/03/10 07:25:07;;;;;;;26.57;11.50;;;2.40;55.90;;;;;;5047130;28;20036;-69
2021/03/10 07:27:45;;;;;;;19.80;10.52;;;2.40;56.10;;;;;;5032840;28;20653;-69
2021/03/10 07:30:11;;;;;;;20.75;11.02;;;2.40;55.90;;;;;;5019188;28;20051;-69
2021/03/10 07:32:37;;;;;;;28.08;11.65;;;2.50;55.90;;;;;;5032800;28;20033;-68
2021/03/10 07:35:07;;;;;;;26.98;11.73;;;2.50;55.90;;;;;;5038034;28;20032;-69
2021/03/10 07:37:51;;;;;;;23.70;11.18;;;2.60;55.90;;;;;;5052072;28;20032;-68
2021/03/10 07:40:17;;;;;;;20.63;11.15;;;2.70;55.90;;;;;;5051767;28;20021;-68
2021/03/10 07:42:50;;;;;;;21.05;10.68;;;2.70;55.80;;;;;;5052123;28;20047;-69
2021/03/10 07:45:15;;;;;;;24.13;11.73;;;2.80;55.90;;;;;;5052274;28;20068;-69
2021/03/10 07:47:55;;;;;;;23.13;10.98;;;2.90;55.90;;;;;;5051836;28;20056;-69
2021/03/10 07:50:36;;;;;;;24.08;10.98;;;3.00;55.90;;;;;;5061045;28;20048;-70
2021/03/10 07:53:01;;;;;;;25.92;11.32;;;3.00;55.80;;;;;;5063703;28;20047;-69
2021/03/10 07:55:27;;;;;;;25.52;12.20;;;3.10;55.70;;;;;;5054334;28;20108;-71
2021/03/10 07:57:53;;;;;;;21.50;10.55;;;3.20;55.50;;;;;;5051731;28;20131;-68
2021/03/10 08:00:19;;;;;;;26.55;11.95;;;3.30;55.40;;;;;;5050697;28;20506;-70
2021/03/10 08:02:48;;;;;;;28.52;12.00;;;3.30;55.20;;;;;;5048803;28;20044;-70
2021/03/10 08:05:20;;;;;;;25.30;11.75;;;3.30;54.90;;;;;;5051554;28;20461;-69
2021/03/10 08:07:46;;;;;;;20.63;11.00;;;3.40;54.80;;;;;;5051035;28;20056;-70
2021/03/10 08:10:12;;;;;;;24.55;11.75;;;3.50;54.70;;;;;;5051924;28;20457;-72
2021/03/10 08:12:40;;;;;;;22.08;11.98;;;3.50;54.40;;;;;;5052031;28;20060;-72
2021/03/10 08:15:06;;;;;;;27.00;12.23;;;3.60;54.50;;;;;;5051763;28;20028;-71
2021/03/10 08:17:32;;;;;;;20.48;10.35;;;3.60;54.50;;;;;;5049658;28;20083;-72
2021/03/10 08:20:01;;;;;;;22.27;12.25;;;3.70;54.50;;;;;;5051576;28;20060;-72
2021/03/10 08:22:28;;;;;;;23.40;11.32;;;3.70;54.40;;;;;;5045218;28;20534;-72
2021/03/10 08:24:55;;;;;;;23.00;11.70;;;3.80;54.30;;;;;;5051016;28;20029;-71
2021/03/10 08:27:33;;;;;;;25.73;11.65;;;3.80;54.00;;;;;;5048222;28;20561;-71
2021/03/10 08:30:00;;;;;;;27.88;12.15;;;3.90;53.40;;;;;;5051349;28;20029;-73
2021/03/10 08:32:28;;;;;;;22.98;11.45;;;3.90;53.00;;;;;;5042178;28;20486;-74
2021/03/10 08:34:59;;;;;;;19.52;10.43;;;3.90;53.40;;;;;;5030306;28;20386;-69
2021/03/10 08:37:26;;;;;;;23.58;10.50;;;3.90;53.40;;;;;;5046527;28;20359;-69
2021/03/10 08:39:51;;;;;;;25.95;11.45;;;4.00;53.50;;;;;;5050367;28;20112;-69
2021/03/10 08:42:22;;;;;;;20.58;11.55;;;4.10;53.60;;;;;;5051089;28;20120;-69
2021/03/10 08:44:49;;;;;;;25.48;13.48;;;4.20;53.50;;;;;;5042636;28;20022;-69
2021/03/10 08:47:20;;;;;;;23.08;11.30;;;4.20;53.40;;;;;;5050608;28;20091;-70
2021/03/10 08:49:51;;;;;;;24.42;11.90;;;4.30;53.40;;;;;;5050870;28;20111;-70
2021/03/10 08:52:17;;;;;;;32.50;12.02;;;4.40;53.30;;;;;;5046502;28;20034;-69
2021/03/10 08:54:53;;;;;;;20.75;9.98;;;4.50;53.30;;;;;;5046317;28;20521;-70
2021/03/10 08:57:34;;;;;;;20.90;10.68;;;4.60;53.00;;;;;;5042642;28;20131;-70
2021/03/10 09:00:05;;;;;;;23.80;12.02;;;4.60;52.60;;;;;;5039526;28;20035;-69
2021/03/10 09:02:34;;;;;;;22.88;10.02;;;4.70;52.40;;;;;;5051087;28;20087;-69
2021/03/10 09:05:02;;;;;;;19.63;9.55;;;4.80;52.60;;;;;;5052961;28;20021;-70
2021/03/10 09:07:28;;;;;;;17.80;9.65;;;4.90;52.40;;;;;;5051683;28;20425;-70
2021/03/10 09:09:56;;;;;;;20.88;10.13;;;5.00;52.10;;;;;;5046816;28;20029;-70
2021/03/10 09:12:22;;;;;;;21.25;10.13;;;5.00;51.40;;;;;;5031441;28;20048;-70
2021/03/10 09:14:48;;;;;;;20.95;10.20;;;5.00;51.40;;;;;;5039966;28;20536;-69
2021/03/10 09:17:14;;;;;;;19.05;9.27;;;5.10;51.30;;;;;;5048781;28;20174;-70
2021/03/10 09:19:41;;;;;;;27.08;10.35;;;5.20;51.20;;;;;;5046900;28;20048;-69
2021/03/10 09:22:09;;;;;;;18.17;9.30;;;5.30;51.10;;;;;;5052275;28;20079;-69
2021/03/10 09:25:01;;;;;;;18.13;10.13;;;5.40;51.10;;;;;;5054852;28;20489;-69
2021/03/10 09:27:31;;;;;;;18.83;9.82;;;5.50;51.00;;;;;;5050199;28;20036;-69
2021/03/10 09:29:59;;;;;;;17.85;9.60;;;5.60;50.00;;;;;;5054905;28;20028;-69
2021/03/10 09:32:36;;;;;;;16.90;8.30;;;5.60;50.30;;;;;;5053027;28;20044;-69
2021/03/10 09:35:10;;;;;;;18.67;9.05;;;5.70;50.50;;;;;;5042567;28;20386;-72
2021/03/10 09:37:43;;;;;;;15.57;8.27;;;5.80;50.30;;;;;;5054536;28;20029;-69
2021/03/10 09:40:09;;;;;;;14.48;8.18;;;6.00;49.90;;;;;;5054689;28;20040;-69
2021/03/10 09:42:34;;;;;;;13.75;7.07;;;6.00;49.10;;;;;;5039754;28;20041;-70
2021/03/10 09:45:00;;;;;;;17.15;7.30;;;6.00;48.30;;;;;;5034480;28;20021;-69
2021/03/10 09:47:26;;;;;;;11.85;7.25;;;6.20;48.80;;;;;;5054613;28;20025;-69
2021/03/10 09:49:58;;;;;;;10.57;6.22;;;6.20;48.20;;;;;;5050371;28;20039;-70
2021/03/10 09:52:35;;;;;;;11.05;6.40;;;6.30;47.60;;;;;;5049834;28;20063;-71
2021/03/10 09:55:09;;;;;;;12.60;5.65;;;6.40;47.10;;;;;;5050842;28;20036;-70
2021/03/10 09:57:35;;;;;;;11.38;5.80;;;6.50;46.80;;;;;;5052937;28;20052;-70
2021/03/10 10:00:00;;;;;;;10.50;5.40;;;6.60;45.50;;;;;;5053836;28;20028;-69
2021/03/10 10:02:27;;;;;;;10.88;5.60;;;6.60;44.80;;;;;;5054511;28;20107;-69
2021/03/10 10:05:04;;;;;;;9.82;4.70;;;6.70;45.30;;;;;;5032259;28;20029;-70
2021/03/10 10:07:30;;;;;;;11.98;5.30;;;6.80;45.10;;;;;;5043240;28;20029;-69
2021/03/10 10:09:57;;;;;;;11.75;5.38;;;6.90;44.90;;;;;;5054182;28;20029;-69
2021/03/10 10:12:23;;;;;;;9.07;5.07;;;7.00;44.60;;;;;;5052619;28;20041;-69
2021/03/10 10:14:49;;;;;;;9.80;5.22;;;7.10;44.20;;;;;;5054145;28;20025;-69
2021/03/10 10:17:15;;;;;;;12.13;6.28;;;7.30;43.90;;;;;;5052328;28;20561;-69
2021/03/10 10:19:41;;;;;;;10.55;5.68;;;7.40;43.50;;;;;;5052204;28;20420;-69
2021/03/10 10:22:08;;;;;;;12.48;5.57;;;7.50;43.20;;;;;;5046230;28;20390;-69
2021/03/10 10:24:33;;;;;;;10.70;4.95;;;7.60;43.30;;;;;;5050833;28;20086;-69
2021/03/10 10:26:59;;;;;;;9.77;4.43;;;7.70;43.10;;;;;;5058095;28;20032;-69
2021/03/10 10:29:24;;;;;;;11.15;5.30;;;7.80;43.00;;;;;;5060149;28;20581;-70
2021/03/10 10:31:50;;;;;;;7.25;4.20;;;7.90;41.90;;;;;;5034854;28;20540;-69
2021/03/10 10:34:15;;;;;;;10.23;4.63;;;8.00;42.10;;;;;;5051826;28;20020;-69
2021/03/10 10:36:41;;;;;;;7.55;4.38;;;8.10;42.00;;;;;;5073980;28;20428;-70
2021/03/10 10:39:06;;;;;;;10.18;4.65;;;8.20;41.60;;;;;;5049880;28;20051;-70
2021/03/10 10:41:32;;;;;;;9.27;4.60;;;8.30;41.60;;;;;;5048116;28;20117;-70
2021/03/10 10:43:57;;;;;;;5.88;3.90;;;8.40;41.60;;;;;;5044118;28;20485;-70
2021/03/10 10:46:23;;;;;;;8.55;3.70;;;8.50;41.90;;;;;;5073733;28;20476;-70
2021/03/10 10:48:49;;;;;;;9.77;4.70;;;8.60;40.80;;;;;;5061762;28;20531;-70
2021/03/10 10:51:16;;;;;;;7.47;4.43;;;8.70;40.70;;;;;;5065779;28;20044;-69
2021/03/10 10:53:42;;;;;;;7.57;3.83;;;8.80;39.40;;;;;;5062296;28;20399;-69
2021/03/10 10:56:07;;;;;;;8.73;2.97;;;8.80;39.20;;;;;;5043590;28;20018;-70
2021/03/10 10:58:33;;;;;;;7.28;3.90;;;8.90;39.00;;;;;;5033225;28;20056;-70
2021/03/10 11:00:58;;;;;;;6.93;4.13;;;9.00;38.90;;;;;;5052011;28;20543;-69
2021/03/10 11:03:25;;;;;;;9.55;3.75;;;9.00;38.70;;;;;;5053126;28;20112;-69
2021/03/10 11:05:51;;;;;;;6.15;3.75;;;9.10;38.80;;;;;;5052805;28;20640;-70
2021/03/10 11:08:16;;;;;;;8.82;4.13;;;9.20;37.80;;;;;;5053197;28;20025;-72
2021/03/10 11:10:42;;;;;;;7.28;3.70;;;9.20;37.80;;;;;;5049272;28;20120;-71
2021/03/10 11:13:07;;;;;;;5.13;3.45;;;9.40;37.80;;;;;;5041399;28;20112;-69
2021/03/10 11:15:33;;;;;;;7.05;3.97;;;9.40;37.30;;;;;;5045099;28;20024;-71
2021/03/10 11:17:58;;;;;;;7.40;3.80;;;9.50;36.60;;;;;;5047734;28;20025;-70
2021/03/10 11:20:24;;;;;;;7.53;4.40;;;9.60;37.40;;;;;;5043977;28;20025;-70
2021/03/10 11:22:49;;;;;;;7.47;3.67;;;9.60;37.70;;;;;;5046398;28;20021;-71
2021/03/10 11:25:16;;;;;;;6.95;3.78;;;9.70;37.20;;;;;;5050542;28;20027;-69
2021/03/10 11:27:41;;;;;;;7.30;3.83;;;9.70;36.70;;;;;;5051599;28;20044;-69
2021/03/10 11:30:09;;;;;;;5.63;3.50;;;9.80;36.20;;;;;;5051610;28;20063;-70
2021/03/10 11:32:35;;;;;;;9.18;4.28;;;9.80;36.20;;;;;;5052022;28;20128;-69
2021/03/10 11:35:00;;;;;;;6.30;3.20;;;9.90;36.20;;;;;;5051450;28;20028;-69
2021/03/10 11:37:26;;;;;;;7.88;3.47;;;9.90;35.60;;;;;;5050813;28;20040;-70
2021/03/10 11:39:53;;;;;;;7.10;4.00;;;9.90;35.80;;;;;;5050556;28;20464;-69
2021/03/10 11:42:18;;;;;;;7.93;3.60;;;10.00;36.10;;;;;;5049623;28;20032;-69
2021/03/10 11:44:43;;;;;;;8.48;3.78;;;10.00;35.90;;;;;;5051658;28;20025;-69
2021/03/10 11:47:09;;;;;;;6.50;3.75;;;10.00;36.00;;;;;;5052345;28;20063;-69
2021/03/10 11:49:34;;;;;;;6.25;3.78;;;10.10;36.20;;;;;;5031631;28;20070;-69
2021/03/10 11:52:00;;;;;;;6.53;3.70;;;10.10;36.10;;;;;;5032005;28;20140;-69
2021/03/10 11:54:26;;;;;;;5.20;3.38;;;10.20;36.10;;;;;;5048731;28;20040;-68
2021/03/10 11:56:51;;;;;;;6.25;3.90;;;10.20;35.60;;;;;;5051997;28;20496;-68
2021/03/10 11:59:17;;;;;;;7.50;3.80;;;10.30;35.70;;;;;;5049213;28;20389;-69
2021/03/10 12:01:43;;;;;;;7.50;4.03;;;10.30;35.40;;;;;;5052295;28;20040;-69
2021/03/10 12:04:08;;;;;;;8.60;4.53;;;10.40;35.80;;;;;;5049745;28;20055;-69
2021/03/10 12:06:34;;;;;;;8.60;4.50;;;10.30;36.00;;;;;;5050587;28;20112;-70
2021/03/10 12:09:00;;;;;;;7.18;4.32;;;10.40;36.20;;;;;;5050493;28;20025;-70
2021/03/10 12:11:25;;;;;;;8.18;4.47;;;10.40;36.30;;;;;;5051264;28;20122;-69
2021/03/10 12:13:51;;;;;;;7.95;5.10;;;10.40;36.30;;;;;;5049706;28;20025;-70
2021/03/10 12:16:16;;;;;;;9.38;5.05;;;10.40;36.30;;;;;;5043099;28;20033;-69
2021/03/10 12:18:42;;;;;;;11.10;4.32;;;10.40;36.00;;;;;;5058006;28;20568;-69
2021/03/10 12:21:07;;;;;;;7.45;4.63;;;10.50;36.10;;;;;;5050828;28;20424;-69
2021/03/10 12:23:34;;;;;;;6.85;4.40;;;10.50;35.90;;;;;;5051290;28;20068;-68
2021/03/10 12:25:59;;;;;;;10.45;4.20;;;10.50;35.80;;;;;;5053015;28;20025;-69
2021/03/10 12:28:25;;;;;;;7.38;4.75;;;10.50;35.40;;;;;;5051882;28;20381;-69
2021/03/10 12:30:50;;;;;;;7.35;4.05;;;10.40;34.90;;;;;;5048965;28;20104;-68
2021/03/10 12:33:16;;;;;;;6.15;4.03;;;10.40;34.40;;;;;;5050279;28;20460;-69
2021/03/10 12:35:42;;;;;;;11.20;4.20;;;10.40;34.70;;;;;;5054833;28;20032;-69
2021/03/10 12:38:08;;;;;;;6.03;3.75;;;10.40;34.60;;;;;;5048353;28;20024;-69
2021/03/10 12:40:33;;;;;;;8.55;4.35;;;10.40;34.30;;;;;;5052884;28;20053;-69
2021/03/10 12:42:59;;;;;;;6.45;3.53;;;10.40;34.20;;;;;;5044539;28;20025;-69
2021/03/10 12:45:24;;;;;;;5.32;3.33;;;10.30;34.30;;;;;;5050183;28;20032;-68
2021/03/10 12:47:50;;;;;;;5.13;3.40;;;10.40;34.30;;;;;;5048477;28;20056;-69